LIRNLYTV

Guest
Details From LIRN - Napoli-Capodichino "Ugo Niutta"
To LYTV - Tivat
Flight Number -
Tags generated
Created
Modified
Stats Distance 221 nm / 410 km
Max Altitude 24,700 ft / 7,529 m
Waypoints 4
Social Downloads 1
Likes 0
Share

Download

Looking for another format? Having issues loading an existing format? Contact us
Advertisement - Login to hide

Notes

Basic altitude profile: - Ascent Rate: 2500ft/min - Ascent Speed: 250kts - Cruise Altitude: 35000ft - Cruise Speed: 420kts - Descent Rate: 1500ft/min - Descent Speed: 250kts Options: - Use NATs: yes - Use PACOTS: yes - Use low airways: yes - Use high airways: yes

Route

LIRN EKMUR PISIP LYTV

ID Type Via Altitude (ft/m) Position (lat/lon) Dist (leg/tot) Name
O LIRN APT - 0 / 0 40.88600 / 14.29080 - / 0 nm Napoli-Capodichino "Ugo Niutta"
EKMUR FIX - 24,700 / 7,529 41.41440 / 16.52330 105 / 105 nm
PISIP FIX - 22,900 / 6,980 41.53030 / 16.63640 8 / 114 nm
O LYTV APT - 0 / 0 42.40470 / 18.72330 106 / 221 nm Tivat

Altitude Profile

Advertisement - Login to hide

Weather


0- 5 10 15 20 25 30 35+ Temperature / °C

Clouds and Precipitation
Forecast for 2020-07-09 06:00 UTC. Updated 6 hours ago

Ground ~20,000 ft ~40,000 ft Winds

LIRN

Details ICAO LIRN (NAP)
Name Napoli-Capodichino "Ugo Niutta"
Region Italy
Timezone Europe/Rome (UTC+2.0)
Stats Elevation 292 ft / 89 m (AMSL)
Location 40.886000° 14.290800°
Runways 1
Magnetic Variation 3.571° E

METAR

LIRN 090850Z 20005KT 130V250 CAVOK 29/19 Q1017 NOSIG

Decode

TAF

TAF LIRN 090500Z 0906/1006 VRB05KT CAVOK BECMG 0908/0910 24010KT BECMG 0916/0918 VRB05KT

Decode

Departure Runways

ID Width Length Bearing (true/mag) Surface Threshold Overrun Markings Lighting
06 148 ft / 45 m 8,630 ft / 2,630 m 58.04° / 54.47° ASPHALT 1,312 ft / 400 m 217 ft / 66 m PREC-APP CENTERLINE EDGE THRESHOLD MALSF REIL-OMNI
24 148 ft / 45 m 8,630 ft / 2,630 m 238.05° / 234.48° ASPHALT 607 ft / 185 m 230 ft / 70 m PREC-APP CENTERLINE EDGE THRESHOLD MALSF REIL-OMNI

LYTV

Details ICAO LYTV (TIV)
Name Tivat
Region Serbia and Montenegro
Timezone Europe/Podgorica (UTC+2.0)
Stats Elevation 20 ft / 6 m (AMSL)
Location 42.404700° 18.723300°
Runways 1
Magnetic Variation 4.431° E

METAR

LYTV 090900Z 29006KT 260V330 CAVOK 28/14 Q1016 NOSIG

Decode

TAF

TAF LYTV 090500Z 0906/1006 28005KT CAVOK TX30/0913Z TN16/1003Z

Decode

Destination Runways

ID Width Length Bearing (true/mag) Surface Threshold Overrun Markings Lighting
14 148 ft / 45 m 8,210 ft / 2,503 m 138.97° / 134.54° ASPHALT 0 ft / 0 m 0 ft / 0 m APP CENTERLINE EDGE THRESHOLD MALSF
32 148 ft / 45 m 8,210 ft / 2,503 m 318.99° / 314.56° ASPHALT 0 ft / 0 m 0 ft / 0 m APP CENTERLINE EDGE THRESHOLD MALSF

Approach Navaids

Runway Type Ident Frequency Range Bearing (true/mag) Slope Elevation
32 LOC-LOC TIV 111.30 MHz 18 nm / 33 km 339.00° / 334.57 ° - 56 ft / 17 m (AMSL)
32 DME TIV 111.30 MHz 18 nm / 33 km - - 49 ft / 15 m (AMSL)

Popular Alternatives